Time;durP1;ratioP1;P1;durP2;ratioP2;P2;SDS_P1;SDS_P2;PMS_P1;PMS_P2;Temp;Humidity;BMP_temperature;BMP_pressure;BME280_temperature;BME280_humidity;BME280_pressure;Samples;Min_cycle;Max_cycle;Signal;HPM_P1;HPM_P2
2022/06/12 00:02:10;;;;;;;2.77;2.57;;;;;;;;;;4917819;29;20199;-90
2022/06/12 00:04:38;;;;;;;12.77;2.63;;;;;;;;;;4904183;29;20207;-90
2022/06/12 00:07:07;;;;;;;2.00;0.97;;;;;;;;;;4935779;29;20218;-90
2022/06/12 00:09:36;;;;;;;6.40;2.30;;;;;;;;;;4919568;29;20203;-90
2022/06/12 00:12:06;;;;;;;1.83;1.73;;;;;;;;;;4919019;29;20204;-90
2022/06/12 00:14:35;;;;;;;7.03;2.60;;;;;;;;;;4907971;29;20235;-90
2022/06/12 00:17:03;;;;;;;12.23;2.00;;;;;;;;;;4921420;29;20282;-90
2022/06/12 00:19:32;;;;;;;5.50;2.40;;;;;;;;;;4872839;29;20207;-90
2022/06/12 00:22:00;;;;;;;0.67;0.67;;;;;;;;;;4907915;29;20204;-90
2022/06/12 00:24:29;;;;;;;4.57;2.23;;;;;;;;;;4901657;29;20208;-89
2022/06/12 00:26:59;;;;;;;2.73;0.80;;;;;;;;;;4916806;29;20256;-89
2022/06/12 00:29:30;;;;;;;2.00;1.03;;;;;;;;;;4885422;29;20202;-90
2022/06/12 00:32:00;;;;;;;3.17;1.57;;;;;;;;;;4916782;29;20203;-90
2022/06/12 00:34:30;;;;;;;10.23;3.07;;;;;;;;;;4898363;29;20299;-91
2022/06/12 00:36:59;;;;;;;13.43;3.77;;;;;;;;;;4885135;29;20299;-90
2022/06/12 00:39:28;;;;;;;2.37;1.20;;;;;;;;;;4887238;29;20256;-90
2022/06/12 00:41:57;;;;;;;4.33;1.47;;;;;;;;;;4926930;29;20222;-89
2022/06/12 00:44:27;;;;;;;6.37;2.17;;;;;;;;;;4915922;29;20318;-89
2022/06/12 00:46:58;;;;;;;6.03;1.70;;;;;;;;;;4907988;29;20199;-90
2022/06/12 00:49:29;;;;;;;4.23;1.20;;;;;;;;;;4903562;29;20242;-90
2022/06/12 00:52:01;;;;;;;0.83;0.83;;;;;;;;;;4928399;29;20201;-89
2022/06/12 00:54:30;;;;;;;8.57;2.80;;;;;;;;;;4884976;29;20204;-88
2022/06/12 00:57:00;;;;;;;2.97;2.50;;;;;;;;;;4934983;29;20203;-89
2022/06/12 00:59:33;;;;;;;7.93;2.53;;;;;;;;;;4906028;29;20246;-90
2022/06/12 01:02:04;;;;;;;4.33;2.07;;;;;;;;;;4915786;29;20243;-89
2022/06/12 01:07:21;;;;;;;9.23;3.07;;;;;;;;;;4929080;29;20213;-90
2022/06/12 01:09:51;;;;;;;7.00;3.60;;;;;;;;;;4925893;29;20222;-90
2022/06/12 01:12:21;;;;;;;4.10;1.93;;;;;;;;;;4889700;29;20202;-90
2022/06/12 01:14:51;;;;;;;7.53;2.10;;;;;;;;;;4911272;29;20264;-90
2022/06/12 01:17:22;;;;;;;15.27;2.77;;;;;;;;;;4915128;29;20215;-90
2022/06/12 01:19:53;;;;;;;1.67;1.23;;;;;;;;;;4883920;29;20200;-91
2022/06/12 01:22:39;;;;;;;2.20;1.30;;;;;;;;;;4913881;29;20224;-91
2022/06/12 01:25:18;;;;;;;6.67;4.67;;;;;;;;;;4906395;29;20205;-90
2022/06/12 01:27:58;;;;;;;4.13;2.10;;;;;;;;;;4884142;29;20208;-90
2022/06/12 01:30:31;;;;;;;2.87;2.67;;;;;;;;;;4884157;29;20228;-90
2022/06/12 01:33:02;;;;;;;0.50;0.50;;;;;;;;;;4888763;29;20227;-90
2022/06/12 01:35:36;;;;;;;4.57;2.47;;;;;;;;;;4888456;29;20304;-90
2022/06/12 01:38:07;;;;;;;2.50;2.40;;;;;;;;;;4880105;29;20208;-90
2022/06/12 01:40:38;;;;;;;1.33;1.33;;;;;;;;;;4887495;29;20307;-90
2022/06/12 01:43:12;;;;;;;3.40;1.87;;;;;;;;;;4905239;29;20238;-91
2022/06/12 01:45:45;;;;;;;5.93;2.83;;;;;;;;;;4891770;29;20213;-91
2022/06/12 01:48:20;;;;;;;8.03;2.47;;;;;;;;;;4897026;29;20286;-91
2022/06/12 01:50:53;;;;;;;9.10;3.17;;;;;;;;;;4911324;29;20203;-90
2022/06/12 01:53:25;;;;;;;6.30;1.77;;;;;;;;;;4900551;29;20232;-91
2022/06/12 01:55:55;;;;;;;18.67;3.13;;;;;;;;;;4894810;29;20264;-90
2022/06/12 01:58:28;;;;;;;2.73;1.47;;;;;;;;;;4901100;29;20214;-90
2022/06/12 02:01:03;;;;;;;9.23;2.50;;;;;;;;;;4887068;29;20230;-90
2022/06/12 02:03:35;;;;;;;3.83;2.80;;;;;;;;;;4896706;29;20206;-90
2022/06/12 02:06:07;;;;;;;2.20;2.10;;;;;;;;;;4915073;29;20218;-90
2022/06/12 02:08:38;;;;;;;1.27;0.83;;;;;;;;;;4896242;29;20207;-90
2022/06/12 02:13:53;;;;;;;2.03;1.83;;;;;;;;;;4915971;29;20208;-90
2022/06/12 02:16:24;;;;;;;5.30;2.47;;;;;;;;;;4910009;29;20235;-90
2022/06/12 02:18:54;;;;;;;2.23;1.20;;;;;;;;;;4895982;29;20226;-90
2022/06/12 02:21:24;;;;;;;9.60;3.23;;;;;;;;;;4899588;29;20322;-90
2022/06/12 02:23:55;;;;;;;1.47;1.07;;;;;;;;;;4909010;29;20298;-89
2022/06/12 02:26:26;;;;;;;15.60;4.47;;;;;;;;;;4899704;29;20286;-90
2022/06/12 02:28:57;;;;;;;25.93;6.23;;;;;;;;;;4899360;29;20212;-91
2022/06/12 02:31:28;;;;;;;8.10;2.93;;;;;;;;;;4892436;29;20203;-90
2022/06/12 02:33:59;;;;;;;11.07;3.53;;;;;;;;;;4891682;29;20208;-90
2022/06/12 02:36:29;;;;;;;3.30;0.90;;;;;;;;;;4913718;29;20217;-90
2022/06/12 02:39:01;;;;;;;0.67;0.67;;;;;;;;;;4885410;29;20227;-90
2022/06/12 02:41:31;;;;;;;5.27;2.00;;;;;;;;;;4915786;29;20230;-90
2022/06/12 02:44:04;;;;;;;1.33;1.27;;;;;;;;;;4899965;29;20238;-91
2022/06/12 02:46:36;;;;;;;13.70;3.40;;;;;;;;;;4883063;29;20211;-90
2022/06/12 02:49:06;;;;;;;6.90;1.60;;;;;;;;;;4899642;29;20220;-90
2022/06/12 02:51:38;;;;;;;0.70;0.70;;;;;;;;;;4914695;29;20213;-91
2022/06/12 02:54:11;;;;;;;0.70;0.70;;;;;;;;;;4908390;29;20220;-91
2022/06/12 02:56:43;;;;;;;5.83;2.40;;;;;;;;;;4913256;29;20213;-90
2022/06/12 02:59:17;;;;;;;5.03;1.47;;;;;;;;;;4907316;29;20203;-90
2022/06/12 03:01:52;;;;;;;1.80;1.70;;;;;;;;;;4904683;29;20212;-91
2022/06/12 03:04:22;;;;;;;1.60;1.50;;;;;;;;;;4879745;29;20215;-90
2022/06/12 03:06:51;;;;;;;2.83;1.40;;;;;;;;;;4882564;29;20314;-90
2022/06/12 03:09:20;;;;;;;4.57;2.20;;;;;;;;;;4882861;29;20222;-91
2022/06/12 03:11:49;;;;;;;0.40;0.40;;;;;;;;;;4882006;29;20294;-90
2022/06/12 03:14:24;;;;;;;7.07;1.80;;;;;;;;;;4899010;29;20242;-90
2022/06/12 03:16:53;;;;;;;0.50;0.50;;;;;;;;;;4882302;29;20211;-90
2022/06/12 03:19:24;;;;;;;0.43;0.43;;;;;;;;;;4882705;29;20215;-90
2022/06/12 03:21:57;;;;;;;6.70;2.73;;;;;;;;;;4913468;29;20228;-91
2022/06/12 03:24:31;;;;;;;4.60;1.80;;;;;;;;;;4899195;29;20215;-90
2022/06/12 03:27:11;;;;;;;1.20;1.17;;;;;;;;;;4882697;29;20220;-91
2022/06/12 03:29:43;;;;;;;5.13;4.67;;;;;;;;;;4886816;29;20203;-90
2022/06/12 03:32:18;;;;;;;0.70;0.70;;;;;;;;;;4916775;29;20210;-89
2022/06/12 03:34:49;;;;;;;4.17;2.03;;;;;;;;;;4898501;29;20207;-90
2022/06/12 03:37:20;;;;;;;11.47;1.50;;;;;;;;;;4886181;29;20199;-90
2022/06/12 03:39:52;;;;;;;8.10;2.53;;;;;;;;;;4903560;29;20203;-90
2022/06/12 03:42:25;;;;;;;2.57;1.33;;;;;;;;;;4920063;29;20215;-90
2022/06/12 03:44:56;;;;;;;10.67;4.33;;;;;;;;;;4904490;29;20303;-90
2022/06/12 03:47:30;;;;;;;3.10;1.47;;;;;;;;;;4925622;29;20211;-91
2022/06/12 03:50:00;;;;;;;0.60;0.60;;;;;;;;;;4888985;29;20271;-90
2022/06/12 03:52:31;;;;;;;6.87;2.90;;;;;;;;;;4885604;29;20199;-90
2022/06/12 03:55:01;;;;;;;0.40;0.40;;;;;;;;;;4885496;29;20222;-90
2022/06/12 03:57:51;;;;;;;2.77;1.80;;;;;;;;;;4894057;29;20203;-91
2022/06/12 04:00:21;;;;;;;2.27;1.83;;;;;;;;;;4916665;29;20208;-90
2022/06/12 04:02:52;;;;;;;6.37;2.20;;;;;;;;;;4902393;29;20214;-90
2022/06/12 04:05:23;;;;;;;0.90;0.90;;;;;;;;;;4898806;29;20298;-90
2022/06/12 04:07:53;;;;;;;12.93;3.63;;;;;;;;;;4885676;29;20231;-91
2022/06/12 04:10:23;;;;;;;8.70;2.33;;;;;;;;;;4888244;29;20208;-90
2022/06/12 04:12:52;;;;;;;7.73;1.20;;;;;;;;;;4895417;29;20206;-90
2022/06/12 04:15:23;;;;;;;7.43;1.90;;;;;;;;;;4898596;29;20245;-90
2022/06/12 04:17:55;;;;;;;2.00;0.93;;;;;;;;;;4885811;29;20307;-91
2022/06/12 04:20:25;;;;;;;3.23;1.67;;;;;;;;;;4931375;29;20215;-90
2022/06/12 04:22:56;;;;;;;4.80;2.07;;;;;;;;;;4903826;29;20246;-91
2022/06/12 04:25:28;;;;;;;1.23;1.13;;;;;;;;;;4921623;29;20274;-90
2022/06/12 04:27:57;;;;;;;2.23;1.57;;;;;;;;;;4885350;29;20207;-89
2022/06/12 04:30:27;;;;;;;1.90;1.80;;;;;;;;;;4884859;29;20268;-90
2022/06/12 04:33:06;;;;;;;2.33;1.37;;;;;;;;;;4906720;29;20207;-91
2022/06/12 04:35:38;;;;;;;8.93;2.13;;;;;;;;;;4907360;29;20210;-90
2022/06/12 04:38:07;;;;;;;1.33;1.27;;;;;;;;;;4913884;29;20219;-91
2022/06/12 04:40:40;;;;;;;6.63;3.80;;;;;;;;;;4885065;29;20218;-89
2022/06/12 04:43:08;;;;;;;4.07;1.40;;;;;;;;;;4890953;29;20231;-90
2022/06/12 04:45:37;;;;;;;3.13;1.23;;;;;;;;;;4891163;29;20223;-90
2022/06/12 04:48:07;;;;;;;3.43;1.90;;;;;;;;;;4888713;29;20225;-90
2022/06/12 04:50:36;;;;;;;0.87;0.77;;;;;;;;;;4885262;29;20212;-90
2022/06/12 04:53:05;;;;;;;8.87;2.77;;;;;;;;;;4929559;29;20297;-90
2022/06/12 04:55:34;;;;;;;0.73;0.53;;;;;;;;;;4922935;29;20203;-90
2022/06/12 04:58:04;;;;;;;0.83;0.83;;;;;;;;;;4907371;29;20214;-90
2022/06/12 05:00:33;;;;;;;4.93;2.47;;;;;;;;;;4884746;29;20208;-90
2022/06/12 05:03:02;;;;;;;3.70;1.70;;;;;;;;;;4884742;29;20309;-90
2022/06/12 05:05:32;;;;;;;6.23;2.73;;;;;;;;;;4897926;29;20216;-90
2022/06/12 05:08:01;;;;;;;1.33;1.23;;;;;;;;;;4901193;29;20294;-91
2022/06/12 05:10:29;;;;;;;4.97;1.20;;;;;;;;;;4884569;29;20201;-90
2022/06/12 05:12:58;;;;;;;2.50;1.47;;;;;;;;;;4884446;29;20206;-90
2022/06/12 05:15:26;;;;;;;3.63;1.30;;;;;;;;;;4897334;29;20259;-90
2022/06/12 05:17:55;;;;;;;6.37;3.47;;;;;;;;;;4884572;29;20204;-90
2022/06/12 05:20:25;;;;;;;5.97;2.77;;;;;;;;;;4914124;29;20215;-90
2022/06/12 05:22:55;;;;;;;3.87;1.50;;;;;;;;;;4884202;29;20282;-90
2022/06/12 05:25:24;;;;;;;5.73;1.17;;;;;;;;;;4914510;29;20294;-89
2022/06/12 05:27:52;;;;;;;1.33;1.23;;;;;;;;;;4915458;29;20283;-90
2022/06/12 05:30:22;;;;;;;3.03;2.30;;;;;;;;;;4927739;29;20201;-90
2022/06/12 05:32:52;;;;;;;5.83;2.50;;;;;;;;;;4912333;29;20265;-90
2022/06/12 05:35:21;;;;;;;4.53;1.40;;;;;;;;;;4900704;29;20283;-90
2022/06/12 05:37:50;;;;;;;3.77;1.53;;;;;;;;;;4914994;29;20196;-90
2022/06/12 05:40:28;;;;;;;1.83;1.20;;;;;;;;;;4926339;29;20212;-90
2022/06/12 05:42:57;;;;;;;1.57;1.47;;;;;;;;;;4929232;29;20232;-90
2022/06/12 05:45:26;;;;;;;3.33;1.43;;;;;;;;;;4915433;29;20208;-90
2022/06/12 05:47:56;;;;;;;4.30;0.60;;;;;;;;;;4899898;29;20212;-89
2022/06/12 05:50:26;;;;;;;1.97;1.20;;;;;;;;;;4902442;29;20403;-89
2022/06/12 05:52:54;;;;;;;2.20;1.30;;;;;;;;;;4915325;29;20310;-89
2022/06/12 05:55:25;;;;;;;1.37;1.27;;;;;;;;;;4900424;29;20224;-89
2022/06/12 05:57:53;;;;;;;2.23;1.23;;;;;;;;;;4899598;29;20210;-89
2022/06/12 06:00:23;;;;;;;2.97;2.73;;;;;;;;;;4883699;29;20204;-89
2022/06/12 06:02:51;;;;;;;1.47;1.23;;;;;;;;;;4915173;29;20212;-89
2022/06/12 06:05:20;;;;;;;2.03;1.70;;;;;;;;;;4886824;29;20199;-89
2022/06/12 06:07:49;;;;;;;4.37;1.63;;;;;;;;;;4909728;29;20287;-90
2022/06/12 06:10:21;;;;;;;28.57;2.83;;;;;;;;;;4927950;29;20235;-89
2022/06/12 06:12:54;;;;;;;0.70;0.70;;;;;;;;;;4917247;29;20306;-87
2022/06/12 06:15:23;;;;;;;2.93;1.37;;;;;;;;;;4885848;29;20239;-87
2022/06/12 06:17:53;;;;;;;1.30;1.20;;;;;;;;;;4899362;29;20204;-89
2022/06/12 06:20:23;;;;;;;6.60;3.00;;;;;;;;;;4879645;29;20206;-89
2022/06/12 06:22:51;;;;;;;6.73;1.97;;;;;;;;;;4890912;29;20210;-89
2022/06/12 06:25:20;;;;;;;12.83;1.77;;;;;;;;;;4910368;29;20218;-86
2022/06/12 06:27:49;;;;;;;2.70;0.97;;;;;;;;;;4894417;29;20537;-87
2022/06/12 06:30:23;;;;;;;1.13;1.13;;;;;;;;;;4898415;29;20207;-87
2022/06/12 06:32:52;;;;;;;2.20;1.47;;;;;;;;;;4875071;29;20289;-86
2022/06/12 06:35:20;;;;;;;1.30;1.13;;;;;;;;;;4871474;29;20201;-86
2022/06/12 06:37:49;;;;;;;5.50;2.60;;;;;;;;;;4881469;29;20210;-86
2022/06/12 06:40:18;;;;;;;2.57;1.67;;;;;;;;;;4881921;29;20235;-85
2022/06/12 06:42:46;;;;;;;3.53;1.90;;;;;;;;;;4897954;29;20197;-86
2022/06/12 06:48:03;;;;;;;5.90;1.87;;;;;;;;;;4910100;29;20268;-85
2022/06/12 06:50:32;;;;;;;2.77;2.57;;;;;;;;;;4879059;29;20239;-84
2022/06/12 06:53:01;;;;;;;6.80;2.13;;;;;;;;;;4880166;29;20200;-88
2022/06/12 06:55:30;;;;;;;0.40;0.40;;;;;;;;;;4908034;29;20295;-86
2022/06/12 06:57:59;;;;;;;2.83;2.67;;;;;;;;;;4903240;29;20205;-88
2022/06/12 07:00:30;;;;;;;6.43;1.70;;;;;;;;;;4889468;29;20238;-89
2022/06/12 07:03:01;;;;;;;0.50;0.50;;;;;;;;;;4874531;29;20205;-86
2022/06/12 07:05:41;;;;;;;0.80;0.80;;;;;;;;;;4892587;29;20302;-89
2022/06/12 07:08:10;;;;;;;10.37;2.37;;;;;;;;;;4915428;29;20254;-87
2022/06/12 07:10:39;;;;;;;0.60;0.60;;;;;;;;;;4887134;29;20256;-89
2022/06/12 07:13:08;;;;;;;3.23;1.70;;;;;;;;;;4902834;29;20247;-91
2022/06/12 07:15:39;;;;;;;0.67;0.67;;;;;;;;;;4888326;29;20267;-91
2022/06/12 07:18:12;;;;;;;6.13;1.97;;;;;;;;;;4887098;29;20276;-89
2022/06/12 07:20:46;;;;;;;2.20;1.63;;;;;;;;;;4905474;29;20302;-90
2022/06/12 07:23:15;;;;;;;4.90;2.23;;;;;;;;;;4884561;29;20239;-90
2022/06/12 07:25:45;;;;;;;4.77;1.83;;;;;;;;;;4916330;29;20227;-87
2022/06/12 07:28:14;;;;;;;3.27;1.80;;;;;;;;;;4914491;29;20211;-88
2022/06/12 07:30:46;;;;;;;4.43;1.53;;;;;;;;;;4913892;29;20199;-84
2022/06/12 07:33:15;;;;;;;1.00;1.00;;;;;;;;;;4879147;29;20294;-88
2022/06/12 07:35:46;;;;;;;2.10;1.10;;;;;;;;;;4886619;29;20228;-90
2022/06/12 07:38:16;;;;;;;4.20;2.00;;;;;;;;;;4884115;29;20220;-90
2022/06/12 07:40:46;;;;;;;1.47;1.27;;;;;;;;;;4882066;29;20245;-86
2022/06/12 07:43:17;;;;;;;5.80;1.97;;;;;;;;;;4882748;29;20237;-89
2022/06/12 07:45:46;;;;;;;1.93;1.00;;;;;;;;;;4878985;29;20253;-88
2022/06/12 07:48:15;;;;;;;1.50;1.40;;;;;;;;;;4894285;29;20214;-89
2022/06/12 07:50:45;;;;;;;3.93;1.80;;;;;;;;;;4909689;29;20211;-87
2022/06/12 07:53:14;;;;;;;5.43;2.00;;;;;;;;;;4914412;29;20216;-89
2022/06/12 07:55:43;;;;;;;5.50;2.93;;;;;;;;;;4899789;29;20233;-89
2022/06/12 07:58:11;;;;;;;5.47;4.27;;;;;;;;;;4878762;29;20222;-86
2022/06/12 08:00:41;;;;;;;8.30;1.97;;;;;;;;;;4895712;29;20207;-87
2022/06/12 08:03:10;;;;;;;0.63;0.63;;;;;;;;;;4881455;29;20210;-85
2022/06/12 08:05:39;;;;;;;2.97;1.90;;;;;;;;;;4883953;29;20230;-90
2022/06/12 08:08:09;;;;;;;2.03;1.90;;;;;;;;;;4911465;29;20211;-87
2022/06/12 08:10:38;;;;;;;4.50;1.73;;;;;;;;;;4878087;29;20239;-87
2022/06/12 08:13:14;;;;;;;1.43;1.33;;;;;;;;;;4910204;29;20226;-88
2022/06/12 08:15:46;;;;;;;0.53;0.53;;;;;;;;;;4891190;29;20301;-91
2022/06/12 08:18:18;;;;;;;1.23;1.23;;;;;;;;;;4876693;29;20207;-90
2022/06/12 08:20:51;;;;;;;2.40;1.93;;;;;;;;;;4881888;29;20214;-88
2022/06/12 08:23:33;;;;;;;4.73;1.73;;;;;;;;;;4878687;29;20209;-88
2022/06/12 08:26:04;;;;;;;6.70;1.90;;;;;;;;;;4904616;29;20247;-86
2022/06/12 08:28:35;;;;;;;8.10;1.33;;;;;;;;;;4912041;29;20243;-88
2022/06/12 08:31:04;;;;;;;12.43;2.60;;;;;;;;;;4910660;29;20212;-90
2022/06/12 08:33:50;;;;;;;4.17;1.63;;;;;;;;;;4896476;29;20212;-87
2022/06/12 08:36:28;;;;;;;1.53;1.47;;;;;;;;;;4899519;29;20205;-88
2022/06/12 08:39:03;;;;;;;5.03;1.90;;;;;;;;;;4880235;29;20228;-90
2022/06/12 08:41:40;;;;;;;7.40;2.03;;;;;;;;;;4882432;29;20222;-89
2022/06/12 08:44:12;;;;;;;1.40;1.30;;;;;;;;;;4896254;29;20317;-90
2022/06/12 08:46:43;;;;;;;4.97;2.00;;;;;;;;;;4891986;29;20212;-90
2022/06/12 08:49:17;;;;;;;6.37;3.00;;;;;;;;;;4916614;29;20221;-92
2022/06/12 08:51:48;;;;;;;4.63;2.20;;;;;;;;;;4913415;29;20207;-91
2022/06/12 08:54:20;;;;;;;2.40;1.10;;;;;;;;;;4882609;29;20279;-87
2022/06/12 08:56:51;;;;;;;8.23;2.87;;;;;;;;;;4912306;29;20252;-89
2022/06/12 08:59:21;;;;;;;4.20;1.03;;;;;;;;;;4913962;29;20211;-88
2022/06/12 09:01:50;;;;;;;0.90;0.87;;;;;;;;;;4892499;29;20235;-87
2022/06/12 09:04:19;;;;;;;2.70;2.07;;;;;;;;;;4906417;29;20254;-87
2022/06/12 09:06:49;;;;;;;1.60;1.50;;;;;;;;;;4893914;29;20211;-90
2022/06/12 09:09:23;;;;;;;4.10;2.80;;;;;;;;;;4875329;29;20243;-87
2022/06/12 09:12:03;;;;;;;4.23;2.67;;;;;;;;;;4877007;29;20210;-86
2022/06/12 09:14:40;;;;;;;4.50;1.60;;;;;;;;;;4897134;29;20229;-88
2022/06/12 09:17:15;;;;;;;5.77;2.30;;;;;;;;;;4893242;29;20206;-87
2022/06/12 09:19:49;;;;;;;9.17;1.93;;;;;;;;;;4894682;29;20219;-88
2022/06/12 09:22:22;;;;;;;3.87;1.30;;;;;;;;;;4877168;29;20223;-88
2022/06/12 09:24:54;;;;;;;4.33;1.40;;;;;;;;;;4892929;29;20222;-87
2022/06/12 09:27:25;;;;;;;3.67;1.93;;;;;;;;;;4875130;29;20301;-89
2022/06/12 09:29:57;;;;;;;0.93;0.93;;;;;;;;;;4886566;29;20209;-87
2022/06/12 09:32:31;;;;;;;5.10;0.90;;;;;;;;;;4907817;29;20210;-93
2022/06/12 09:35:05;;;;;;;7.23;3.23;;;;;;;;;;4900664;29;20211;-89
2022/06/12 09:40:33;;;;;;;9.07;2.77;;;;;;;;;;4912694;29;20243;-91
2022/06/12 09:43:03;;;;;;;7.43;2.17;;;;;;;;;;4879793;29;20247;-90
2022/06/12 09:45:40;;;;;;;0.90;0.77;;;;;;;;;;4894266;29;20321;-90
2022/06/12 09:48:21;;;;;;;3.33;1.43;;;;;;;;;;4912997;29;20304;-89
2022/06/12 09:51:20;;;;;;;2.83;1.80;;;;;;;;;;4889698;29;20219;-88
2022/06/12 09:53:57;;;;;;;2.63;1.47;;;;;;;;;;4897560;29;20292;-88
2022/06/12 09:56:30;;;;;;;8.70;2.40;;;;;;;;;;4891702;29;20208;-88
2022/06/12 09:59:02;;;;;;;3.97;1.73;;;;;;;;;;4881995;29;20211;-88
2022/06/12 10:01:34;;;;;;;4.23;1.77;;;;;;;;;;4903466;29;20205;-87
2022/06/12 10:04:05;;;;;;;2.17;1.80;;;;;;;;;;4882863;29;20213;-87
2022/06/12 10:06:37;;;;;;;1.53;1.43;;;;;;;;;;4906832;29;20230;-89
2022/06/12 10:09:08;;;;;;;2.73;1.83;;;;;;;;;;4884269;29;20242;-89
2022/06/12 10:11:40;;;;;;;8.60;1.87;;;;;;;;;;4876992;29;20202;-89
2022/06/12 10:14:11;;;;;;;1.60;1.43;;;;;;;;;;4877981;29;20322;-89
2022/06/12 10:16:41;;;;;;;4.43;4.10;;;;;;;;;;4882450;29;20304;-90
2022/06/12 10:19:38;;;;;;;7.23;1.60;;;;;;;;;;4903393;29;20271;-88
2022/06/12 10:22:09;;;;;;;3.10;1.07;;;;;;;;;;4885668;29;20274;-89
2022/06/12 10:24:37;;;;;;;2.47;1.53;;;;;;;;;;4897254;29;20215;-89
2022/06/12 10:27:09;;;;;;;8.53;2.47;;;;;;;;;;4891543;29;20312;-89
2022/06/12 10:29:42;;;;;;;5.27;1.63;;;;;;;;;;4907481;29;20223;-89
2022/06/12 10:32:14;;;;;;;1.57;1.27;;;;;;;;;;4908599;29;20236;-89
2022/06/12 10:34:45;;;;;;;2.43;1.70;;;;;;;;;;4881327;29;20219;-89
2022/06/12 10:37:18;;;;;;;3.70;2.67;;;;;;;;;;4892796;29;20206;-89
2022/06/12 10:40:04;;;;;;;2.57;1.10;;;;;;;;;;4879789;29;20318;-90
2022/06/12 10:42:45;;;;;;;4.50;2.40;;;;;;;;;;4906216;29;20207;-91
2022/06/12 10:45:26;;;;;;;8.47;3.43;;;;;;;;;;4882753;29;20240;-91
2022/06/12 10:47:56;;;;;;;2.63;2.13;;;;;;;;;;4896870;29;20206;-92
2022/06/12 10:50:27;;;;;;;1.93;1.50;;;;;;;;;;4879791;29;20300;-93
2022/06/12 10:52:58;;;;;;;1.63;1.53;;;;;;;;;;4882435;29;20204;-91
2022/06/12 10:55:37;;;;;;;1.97;1.77;;;;;;;;;;4881313;29;20215;-89
2022/06/12 10:58:13;;;;;;;6.63;3.40;;;;;;;;;;4909074;29;20212;-90
2022/06/12 11:00:44;;;;;;;2.10;1.37;;;;;;;;;;4879443;29;20213;-92
2022/06/12 11:03:17;;;;;;;3.33;1.57;;;;;;;;;;4882104;29;20205;-90
2022/06/12 11:05:49;;;;;;;1.70;1.60;;;;;;;;;;4878168;29;20227;-88
2022/06/12 11:08:27;;;;;;;0.77;0.77;;;;;;;;;;4880252;29;20297;-89
2022/06/12 11:11:03;;;;;;;11.73;2.60;;;;;;;;;;4882911;29;20211;-89
2022/06/12 11:13:47;;;;;;;2.67;2.27;;;;;;;;;;4884508;29;20295;-87
2022/06/12 11:16:23;;;;;;;1.70;1.23;;;;;;;;;;4898582;29;20240;-88
2022/06/12 11:18:58;;;;;;;1.53;1.43;;;;;;;;;;4900733;29;20215;-91
2022/06/12 11:21:32;;;;;;;3.33;2.00;;;;;;;;;;4872192;29;20285;-89
2022/06/12 11:24:07;;;;;;;2.63;1.53;;;;;;;;;;4900472;29;20309;-89
2022/06/12 11:26:48;;;;;;;4.07;1.83;;;;;;;;;;4891740;29;20217;-90
2022/06/12 11:29:31;;;;;;;3.73;1.43;;;;;;;;;;4876588;29;20220;-89
2022/06/12 11:32:06;;;;;;;3.57;2.50;;;;;;;;;;4909991;29;20215;-88
2022/06/12 11:34:39;;;;;;;4.50;2.30;;;;;;;;;;4879563;29;20298;-89
2022/06/12 11:37:25;;;;;;;4.97;1.97;;;;;;;;;;4912329;29;20225;-88
2022/06/12 11:39:58;;;;;;;2.30;1.83;;;;;;;;;;4881118;29;20219;-89
2022/06/12 11:42:31;;;;;;;2.73;2.53;;;;;;;;;;4900126;29;20221;-90
2022/06/12 11:45:29;;;;;;;6.53;1.70;;;;;;;;;;4878652;29;20236;-89
2022/06/12 11:48:12;;;;;;;5.47;2.40;;;;;;;;;;4881821;29;20250;-87
2022/06/12 11:50:44;;;;;;;1.87;1.53;;;;;;;;;;4876802;29;20215;-87
2022/06/12 11:53:20;;;;;;;7.03;1.57;;;;;;;;;;4902410;29;20214;-87
2022/06/12 11:55:54;;;;;;;2.67;1.53;;;;;;;;;;4890431;29;20300;-88
2022/06/12 11:58:44;;;;;;;5.37;2.73;;;;;;;;;;4884706;29;20213;-88
2022/06/12 12:01:23;;;;;;;3.13;1.80;;;;;;;;;;4909886;29;20242;-88
2022/06/12 12:04:09;;;;;;;3.93;1.90;;;;;;;;;;4894293;29;20279;-90
2022/06/12 12:06:47;;;;;;;5.73;3.00;;;;;;;;;;4907291;29;20223;-91
2022/06/12 12:09:22;;;;;;;4.47;2.40;;;;;;;;;;4905630;29;20219;-90
2022/06/12 12:11:54;;;;;;;7.43;2.57;;;;;;;;;;4907756;29;20212;-90
2022/06/12 12:14:24;;;;;;;5.60;1.30;;;;;;;;;;4899060;29;20294;-90
2022/06/12 12:16:58;;;;;;;4.20;1.77;;;;;;;;;;4924159;29;20295;-87
2022/06/12 12:19:32;;;;;;;1.03;1.03;;;;;;;;;;4908074;29;20284;-87
2022/06/12 12:22:01;;;;;;;1.83;1.30;;;;;;;;;;4878517;29;20212;-85
2022/06/12 12:24:31;;;;;;;2.60;1.57;;;;;;;;;;4903981;29;20638;-84
2022/06/12 12:27:01;;;;;;;6.10;2.53;;;;;;;;;;4911404;29;20223;-85
2022/06/12 12:29:31;;;;;;;8.37;2.30;;;;;;;;;;4911431;29;20295;-86
2022/06/12 12:32:03;;;;;;;3.77;1.97;;;;;;;;;;4893706;29;20204;-84
2022/06/12 12:34:32;;;;;;;9.23;1.83;;;;;;;;;;4907204;29;20215;-85
2022/06/12 12:43:02;;;;;;;6.23;2.00;;;;;;;;;;4897225;29;20213;-86
2022/06/12 12:45:32;;;;;;;6.60;3.33;;;;;;;;;;4899899;29;20213;-88
2022/06/12 12:48:13;;;;;;;2.23;1.37;;;;;;;;;;4884280;29;20241;-86
2022/06/12 12:50:46;;;;;;;3.90;1.90;;;;;;;;;;4903772;29;20211;-87
2022/06/12 12:53:25;;;;;;;5.07;2.20;;;;;;;;;;4879263;29;20237;-86
2022/06/12 12:56:02;;;;;;;11.03;3.80;;;;;;;;;;4894613;29;20222;-87
2022/06/12 12:58:31;;;;;;;3.67;2.67;;;;;;;;;;4914293;29;20207;-87
2022/06/12 13:01:05;;;;;;;8.90;1.87;;;;;;;;;;4883186;29;20234;-88
2022/06/12 13:03:40;;;;;;;8.87;3.63;;;;;;;;;;4890852;29;20210;-85
2022/06/12 13:06:17;;;;;;;16.60;4.13;;;;;;;;;;4907181;29;20204;-84
2022/06/12 13:08:54;;;;;;;11.73;2.73;;;;;;;;;;4893024;29;20228;-85
2022/06/12 13:11:36;;;;;;;2.93;1.53;;;;;;;;;;4892156;29;20202;-87
2022/06/12 13:14:21;;;;;;;9.90;3.00;;;;;;;;;;4886273;29;20227;-87
2022/06/12 13:16:55;;;;;;;0.97;0.97;;;;;;;;;;4880013;29;20288;-87
2022/06/12 13:19:30;;;;;;;11.40;2.30;;;;;;;;;;4903789;29;20234;-86
2022/06/12 13:22:04;;;;;;;3.67;2.70;;;;;;;;;;4901992;29;20264;-86
2022/06/12 13:24:35;;;;;;;4.77;2.23;;;;;;;;;;4889891;29;20212;-84
2022/06/12 13:27:12;;;;;;;2.43;1.37;;;;;;;;;;4901205;29;20278;-87
2022/06/12 13:29:45;;;;;;;8.13;2.73;;;;;;;;;;4894996;29;20215;-86
2022/06/12 13:32:21;;;;;;;19.57;2.03;;;;;;;;;;4904825;29;20209;-86
2022/06/12 13:35:19;;;;;;;6.50;2.67;;;;;;;;;;4881321;29;20200;-84
2022/06/12 13:37:50;;;;;;;1.30;1.20;;;;;;;;;;4882309;29;20217;-86
2022/06/12 13:40:26;;;;;;;8.07;2.70;;;;;;;;;;4895424;29;20225;-84
2022/06/12 13:43:35;;;;;;;9.17;2.17;;;;;;;;;;4897713;29;20219;-86
2022/06/12 13:46:08;;;;;;;8.80;2.57;;;;;;;;;;4907165;29;20273;-85
2022/06/12 13:48:42;;;;;;;1.70;1.37;;;;;;;;;;4891353;29;20227;-86
2022/06/12 13:51:22;;;;;;;3.20;2.13;;;;;;;;;;4908254;29;20214;-92
2022/06/12 13:53:59;;;;;;;1.00;0.63;;;;;;;;;;4906489;29;20258;-85
2022/06/12 13:56:28;;;;;;;1.73;1.60;;;;;;;;;;4893469;29;20206;-88
2022/06/12 13:58:57;;;;;;;1.13;1.07;;;;;;;;;;4907904;29;20205;-88
2022/06/12 14:01:28;;;;;;;5.10;2.30;;;;;;;;;;4906076;29;20218;-88
2022/06/12 14:04:01;;;;;;;11.87;3.23;;;;;;;;;;4879384;29;20212;-90
2022/06/12 14:06:32;;;;;;;3.73;1.60;;;;;;;;;;4904943;29;20265;-87
2022/06/12 14:09:03;;;;;;;2.33;2.13;;;;;;;;;;4903920;29;20331;-88
2022/06/12 14:11:37;;;;;;;10.53;3.57;;;;;;;;;;4890514;29;20217;-88
2022/06/12 14:14:22;;;;;;;2.03;1.83;;;;;;;;;;4894162;29;20322;-86
2022/06/12 14:16:52;;;;;;;4.40;2.43;;;;;;;;;;4875431;29;20216;-85
2022/06/12 14:19:26;;;;;;;3.43;2.67;;;;;;;;;;4891695;29;20233;-84
2022/06/12 14:22:02;;;;;;;1.97;1.80;;;;;;;;;;4892829;29;20218;-84
2022/06/12 14:24:33;;;;;;;5.43;1.70;;;;;;;;;;4910877;29;20222;-85
2022/06/12 14:27:02;;;;;;;2.07;1.63;;;;;;;;;;4891394;29;20211;-84
2022/06/12 14:29:33;;;;;;;2.80;1.53;;;;;;;;;;4905067;29;20232;-85
2022/06/12 14:32:15;;;;;;;4.87;2.87;;;;;;;;;;4893158;29;20268;-85
2022/06/12 14:34:45;;;;;;;3.43;2.10;;;;;;;;;;4907288;29;20231;-85
2022/06/12 14:37:27;;;;;;;2.37;2.17;;;;;;;;;;4899466;29;20212;-89
2022/06/12 14:39:56;;;;;;;3.40;2.00;;;;;;;;;;4906109;29;20228;-85
2022/06/12 14:42:26;;;;;;;3.70;1.63;;;;;;;;;;4904989;29;20197;-86
2022/06/12 14:44:57;;;;;;;0.87;0.87;;;;;;;;;;4907401;29;20259;-85
2022/06/12 14:47:27;;;;;;;6.70;2.10;;;;;;;;;;4906615;29;20312;-86
2022/06/12 14:49:56;;;;;;;1.03;1.03;;;;;;;;;;4894329;29;20207;-86
2022/06/12 14:52:28;;;;;;;2.43;1.77;;;;;;;;;;4899348;29;20208;-85
2022/06/12 14:54:57;;;;;;;4.40;1.50;;;;;;;;;;4883503;29;20239;-86
2022/06/12 14:57:27;;;;;;;2.73;1.53;;;;;;;;;;4880810;29;20211;-89
2022/06/12 14:59:56;;;;;;;0.87;0.87;;;;;;;;;;4892147;29;20214;-86
2022/06/12 15:02:26;;;;;;;1.37;1.27;;;;;;;;;;4891331;29;20209;-87
2022/06/12 15:04:54;;;;;;;3.13;1.43;;;;;;;;;;4896951;29;20236;-85
2022/06/12 15:07:23;;;;;;;2.87;1.97;;;;;;;;;;4878229;29;20216;-90
2022/06/12 15:09:54;;;;;;;3.77;1.47;;;;;;;;;;4908463;29;21169;-91
2022/06/12 15:12:24;;;;;;;5.77;3.00;;;;;;;;;;4889925;29;20215;-87
2022/06/12 15:14:52;;;;;;;2.17;1.63;;;;;;;;;;4905259;29;20249;-91
2022/06/12 15:17:21;;;;;;;5.20;1.87;;;;;;;;;;4909643;29;20221;-90
2022/06/12 15:19:50;;;;;;;9.27;2.57;;;;;;;;;;4897790;29;20210;-87
2022/06/12 15:22:20;;;;;;;1.43;1.33;;;;;;;;;;4898979;29;20221;-86
2022/06/12 15:24:49;;;;;;;1.27;1.00;;;;;;;;;;4905734;29;20215;-88
2022/06/12 15:30:14;;;;;;;1.27;1.17;;;;;;;;;;4894121;29;20203;-89
2022/06/12 15:32:43;;;;;;;4.57;1.87;;;;;;;;;;4911089;29;20207;-87
2022/06/12 15:35:17;;;;;;;5.93;2.00;;;;;;;;;;4911070;29;20250;-88